sensor_id;sensor_type;location;lat;lon;timestamp;P1;durP1;ratioP1;P2;durP2;ratioP2
12597;SDS011;6364;53.590;9.956;2022-09-29T00:02:21;24.67;;;15.40;;
12597;SDS011;6364;53.590;9.956;2022-09-29T00:04:46;23.92;;;15.20;;
12597;SDS011;6364;53.590;9.956;2022-09-29T00:07:12;25.23;;;14.95;;
12597;SDS011;6364;53.590;9.956;2022-09-29T00:09:37;23.15;;;14.63;;
12597;SDS011;6364;53.590;9.956;2022-09-29T00:12:03;24.33;;;15.10;;
12597;SDS011;6364;53.590;9.956;2022-09-29T00:14:28;23.35;;;15.20;;
12597;SDS011;6364;53.590;9.956;2022-09-29T00:16:53;27.42;;;16.15;;
12597;SDS011;6364;53.590;9.956;2022-09-29T00:19:18;29.95;;;16.48;;
12597;SDS011;6364;53.590;9.956;2022-09-29T00:21:44;24.35;;;15.82;;
12597;SDS011;6364;53.590;9.956;2022-09-29T00:24:09;27.05;;;16.65;;
12597;SDS011;6364;53.590;9.956;2022-09-29T00:26:35;31.58;;;16.92;;
12597;SDS011;6364;53.590;9.956;2022-09-29T00:29:00;28.20;;;16.35;;
12597;SDS011;6364;53.590;9.956;2022-09-29T00:31:27;28.95;;;16.80;;
12597;SDS011;6364;53.590;9.956;2022-09-29T00:33:54;26.42;;;16.35;;
12597;SDS011;6364;53.590;9.956;2022-09-29T00:36:21;25.80;;;16.95;;
12597;SDS011;6364;53.590;9.956;2022-09-29T00:38:47;25.83;;;16.42;;
12597;SDS011;6364;53.590;9.956;2022-09-29T00:41:14;27.35;;;16.02;;
12597;SDS011;6364;53.590;9.956;2022-09-29T00:49:11;25.15;;;14.63;;
12597;SDS011;6364;53.590;9.956;2022-09-29T00:51:50;29.52;;;16.60;;
12597;SDS011;6364;53.590;9.956;2022-09-29T00:54:18;25.23;;;14.77;;
12597;SDS011;6364;53.590;9.956;2022-09-29T00:56:44;25.25;;;15.73;;
12597;SDS011;6364;53.590;9.956;2022-09-29T00:59:12;24.30;;;14.68;;
12597;SDS011;6364;53.590;9.956;2022-09-29T01:01:39;28.23;;;15.77;;
12597;SDS011;6364;53.590;9.956;2022-09-29T01:04:06;24.08;;;14.65;;
12597;SDS011;6364;53.590;9.956;2022-09-29T01:06:35;24.67;;;16.30;;
12597;SDS011;6364;53.590;9.956;2022-09-29T01:11:33;27.13;;;15.23;;
12597;SDS011;6364;53.590;9.956;2022-09-29T01:13:59;26.25;;;15.95;;
12597;SDS011;6364;53.590;9.956;2022-09-29T01:16:28;27.02;;;15.68;;
12597;SDS011;6364;53.590;9.956;2022-09-29T01:18:55;23.02;;;14.65;;
12597;SDS011;6364;53.590;9.956;2022-09-29T01:27:08;30.15;;;16.25;;
12597;SDS011;6364;53.590;9.956;2022-09-29T01:43:55;24.85;;;15.43;;
12597;SDS011;6364;53.590;9.956;2022-09-29T01:46:24;24.90;;;15.30;;
12597;SDS011;6364;53.590;9.956;2022-09-29T01:48:53;26.02;;;15.75;;
12597;SDS011;6364;53.590;9.956;2022-09-29T01:51:22;24.10;;;14.95;;
12597;SDS011;6364;53.590;9.956;2022-09-29T01:53:50;25.25;;;15.38;;
12597;SDS011;6364;53.590;9.956;2022-09-29T01:56:19;24.73;;;14.85;;
12597;SDS011;6364;53.590;9.956;2022-09-29T01:58:58;22.58;;;14.48;;
12597;SDS011;6364;53.590;9.956;2022-09-29T02:01:29;27.60;;;14.32;;
12597;SDS011;6364;53.590;9.956;2022-09-29T02:03:58;22.92;;;14.82;;
12597;SDS011;6364;53.590;9.956;2022-09-29T02:06:34;20.88;;;13.50;;
12597;SDS011;6364;53.590;9.956;2022-09-29T02:09:07;25.08;;;14.43;;
12597;SDS011;6364;53.590;9.956;2022-09-29T02:11:35;23.95;;;14.60;;
12597;SDS011;6364;53.590;9.956;2022-09-29T02:14:04;25.85;;;14.02;;
12597;SDS011;6364;53.590;9.956;2022-09-29T02:16:35;24.70;;;14.60;;
12597;SDS011;6364;53.590;9.956;2022-09-29T02:19:07;24.75;;;15.13;;
12597;SDS011;6364;53.590;9.956;2022-09-29T02:21:34;23.27;;;15.32;;
12597;SDS011;6364;53.590;9.956;2022-09-29T02:24:00;23.27;;;13.65;;
12597;SDS011;6364;53.590;9.956;2022-09-29T02:26:27;26.50;;;14.93;;
12597;SDS011;6364;53.590;9.956;2022-09-29T02:28:55;25.27;;;15.40;;
12597;SDS011;6364;53.590;9.956;2022-09-29T02:31:20;26.40;;;15.50;;
12597;SDS011;6364;53.590;9.956;2022-09-29T02:33:47;25.02;;;14.75;;
12597;SDS011;6364;53.590;9.956;2022-09-29T02:39:14;24.35;;;14.75;;
12597;SDS011;6364;53.590;9.956;2022-09-29T02:55:16;32.47;;;16.83;;
12597;SDS011;6364;53.590;9.956;2022-09-29T02:57:54;25.60;;;15.27;;
12597;SDS011;6364;53.590;9.956;2022-09-29T03:00:23;29.02;;;15.75;;
12597;SDS011;6364;53.590;9.956;2022-09-29T03:02:50;26.10;;;15.70;;
12597;SDS011;6364;53.590;9.956;2022-09-29T03:05:17;29.00;;;16.13;;
12597;SDS011;6364;53.590;9.956;2022-09-29T03:07:44;26.88;;;16.55;;
12597;SDS011;6364;53.590;9.956;2022-09-29T03:10:09;28.33;;;17.33;;
12597;SDS011;6364;53.590;9.956;2022-09-29T03:12:37;28.02;;;17.30;;
12597;SDS011;6364;53.590;9.956;2022-09-29T03:15:03;33.30;;;18.13;;
12597;SDS011;6364;53.590;9.956;2022-09-29T03:17:29;29.73;;;17.25;;
12597;SDS011;6364;53.590;9.956;2022-09-29T03:19:55;29.75;;;17.23;;
12597;SDS011;6364;53.590;9.956;2022-09-29T03:22:21;28.67;;;17.23;;
12597;SDS011;6364;53.590;9.956;2022-09-29T03:24:47;25.83;;;15.98;;
12597;SDS011;6364;53.590;9.956;2022-09-29T03:27:12;35.88;;;17.90;;
12597;SDS011;6364;53.590;9.956;2022-09-29T03:29:37;26.98;;;16.42;;
12597;SDS011;6364;53.590;9.956;2022-09-29T03:32:03;28.75;;;15.93;;
12597;SDS011;6364;53.590;9.956;2022-09-29T03:34:30;30.30;;;17.95;;
12597;SDS011;6364;53.590;9.956;2022-09-29T03:36:55;27.50;;;17.60;;
12597;SDS011;6364;53.590;9.956;2022-09-29T03:39:22;28.48;;;17.42;;
12597;SDS011;6364;53.590;9.956;2022-09-29T03:41:47;30.10;;;17.15;;
12597;SDS011;6364;53.590;9.956;2022-09-29T03:44:13;29.55;;;18.23;;
12597;SDS011;6364;53.590;9.956;2022-09-29T03:46:38;35.05;;;18.73;;
12597;SDS011;6364;53.590;9.956;2022-09-29T03:49:03;30.83;;;16.85;;
12597;SDS011;6364;53.590;9.956;2022-09-29T03:51:29;28.35;;;17.55;;
12597;SDS011;6364;53.590;9.956;2022-09-29T03:53:54;30.13;;;17.30;;
12597;SDS011;6364;53.590;9.956;2022-09-29T03:56:20;32.25;;;18.83;;
12597;SDS011;6364;53.590;9.956;2022-09-29T03:58:45;31.65;;;19.05;;
12597;SDS011;6364;53.590;9.956;2022-09-29T04:01:10;32.72;;;19.08;;
12597;SDS011;6364;53.590;9.956;2022-09-29T04:03:36;33.08;;;19.58;;
12597;SDS011;6364;53.590;9.956;2022-09-29T04:06:01;34.20;;;18.33;;
12597;SDS011;6364;53.590;9.956;2022-09-29T04:08:26;32.60;;;19.33;;
12597;SDS011;6364;53.590;9.956;2022-09-29T04:10:52;29.08;;;17.58;;
12597;SDS011;6364;53.590;9.956;2022-09-29T04:13:17;35.30;;;19.35;;
12597;SDS011;6364;53.590;9.956;2022-09-29T04:15:42;32.40;;;19.27;;
12597;SDS011;6364;53.590;9.956;2022-09-29T04:18:08;36.47;;;18.83;;
12597;SDS011;6364;53.590;9.956;2022-09-29T04:20:33;32.17;;;19.00;;
12597;SDS011;6364;53.590;9.956;2022-09-29T04:22:58;38.75;;;20.60;;
12597;SDS011;6364;53.590;9.956;2022-09-29T04:25:25;32.67;;;19.38;;
12597;SDS011;6364;53.590;9.956;2022-09-29T04:27:51;32.25;;;19.33;;
12597;SDS011;6364;53.590;9.956;2022-09-29T04:30:17;35.45;;;20.08;;
12597;SDS011;6364;53.590;9.956;2022-09-29T04:32:42;35.70;;;19.58;;
12597;SDS011;6364;53.590;9.956;2022-09-29T04:35:08;35.35;;;20.25;;
12597;SDS011;6364;53.590;9.956;2022-09-29T04:37:33;36.20;;;19.98;;
12597;SDS011;6364;53.590;9.956;2022-09-29T04:39:59;42.53;;;22.17;;
12597;SDS011;6364;53.590;9.956;2022-09-29T04:42:24;38.10;;;21.30;;
12597;SDS011;6364;53.590;9.956;2022-09-29T04:44:49;37.55;;;21.20;;
12597;SDS011;6364;53.590;9.956;2022-09-29T04:47:15;40.58;;;21.88;;
12597;SDS011;6364;53.590;9.956;2022-09-29T04:49:41;37.95;;;21.55;;
12597;SDS011;6364;53.590;9.956;2022-09-29T04:52:06;39.53;;;21.92;;
12597;SDS011;6364;53.590;9.956;2022-09-29T04:54:32;42.53;;;22.50;;
12597;SDS011;6364;53.590;9.956;2022-09-29T04:56:58;40.35;;;22.70;;
12597;SDS011;6364;53.590;9.956;2022-09-29T04:59:23;41.20;;;22.73;;
12597;SDS011;6364;53.590;9.956;2022-09-29T05:01:49;41.47;;;21.67;;
12597;SDS011;6364;53.590;9.956;2022-09-29T05:04:14;41.13;;;23.25;;
12597;SDS011;6364;53.590;9.956;2022-09-29T05:06:39;38.38;;;22.65;;
12597;SDS011;6364;53.590;9.956;2022-09-29T05:09:05;36.85;;;21.77;;
12597;SDS011;6364;53.590;9.956;2022-09-29T05:11:31;39.40;;;23.10;;
12597;SDS011;6364;53.590;9.956;2022-09-29T05:13:56;38.00;;;22.40;;
12597;SDS011;6364;53.590;9.956;2022-09-29T05:16:22;40.75;;;22.75;;
12597;SDS011;6364;53.590;9.956;2022-09-29T05:18:48;39.75;;;23.00;;
12597;SDS011;6364;53.590;9.956;2022-09-29T05:21:14;43.78;;;23.55;;
12597;SDS011;6364;53.590;9.956;2022-09-29T05:23:39;44.97;;;23.55;;
12597;SDS011;6364;53.590;9.956;2022-09-29T05:26:06;41.42;;;22.35;;
12597;SDS011;6364;53.590;9.956;2022-09-29T05:28:35;37.80;;;22.23;;
12597;SDS011;6364;53.590;9.956;2022-09-29T05:31:05;41.03;;;23.88;;
12597;SDS011;6364;53.590;9.956;2022-09-29T05:33:32;38.38;;;23.63;;
12597;SDS011;6364;53.590;9.956;2022-09-29T05:35:58;40.33;;;23.08;;
12597;SDS011;6364;53.590;9.956;2022-09-29T05:38:23;43.58;;;22.98;;
12597;SDS011;6364;53.590;9.956;2022-09-29T05:40:49;41.42;;;23.23;;
12597;SDS011;6364;53.590;9.956;2022-09-29T05:43:15;42.78;;;23.05;;
12597;SDS011;6364;53.590;9.956;2022-09-29T05:45:40;41.85;;;24.23;;
12597;SDS011;6364;53.590;9.956;2022-09-29T05:48:06;38.30;;;22.52;;
12597;SDS011;6364;53.590;9.956;2022-09-29T05:50:32;44.75;;;23.73;;
12597;SDS011;6364;53.590;9.956;2022-09-29T05:53:05;41.67;;;23.87;;
12597;SDS011;6364;53.590;9.956;2022-09-29T05:55:30;44.08;;;24.30;;
12597;SDS011;6364;53.590;9.956;2022-09-29T05:57:56;37.97;;;22.85;;
12597;SDS011;6364;53.590;9.956;2022-09-29T06:00:21;43.38;;;24.77;;
12597;SDS011;6364;53.590;9.956;2022-09-29T06:02:46;43.70;;;23.65;;
12597;SDS011;6364;53.590;9.956;2022-09-29T06:05:12;38.47;;;23.25;;
12597;SDS011;6364;53.590;9.956;2022-09-29T06:07:37;41.30;;;24.45;;
12597;SDS011;6364;53.590;9.956;2022-09-29T06:10:03;42.67;;;25.15;;
12597;SDS011;6364;53.590;9.956;2022-09-29T06:12:32;40.65;;;23.95;;
12597;SDS011;6364;53.590;9.956;2022-09-29T06:14:58;37.65;;;23.40;;
12597;SDS011;6364;53.590;9.956;2022-09-29T06:17:23;39.70;;;23.20;;
12597;SDS011;6364;53.590;9.956;2022-09-29T06:19:48;39.97;;;22.83;;
12597;SDS011;6364;53.590;9.956;2022-09-29T06:22:14;39.08;;;22.75;;
12597;SDS011;6364;53.590;9.956;2022-09-29T06:24:39;38.25;;;23.38;;
12597;SDS011;6364;53.590;9.956;2022-09-29T06:27:05;40.17;;;24.80;;
12597;SDS011;6364;53.590;9.956;2022-09-29T06:29:30;40.65;;;23.67;;
12597;SDS011;6364;53.590;9.956;2022-09-29T06:31:55;36.47;;;21.67;;
12597;SDS011;6364;53.590;9.956;2022-09-29T06:34:21;40.47;;;23.55;;
12597;SDS011;6364;53.590;9.956;2022-09-29T06:36:46;37.40;;;22.85;;
12597;SDS011;6364;53.590;9.956;2022-09-29T06:39:30;39.45;;;22.92;;
12597;SDS011;6364;53.590;9.956;2022-09-29T06:41:55;38.10;;;22.77;;
12597;SDS011;6364;53.590;9.956;2022-09-29T06:44:21;36.15;;;22.60;;
12597;SDS011;6364;53.590;9.956;2022-09-29T06:46:48;38.45;;;24.17;;
12597;SDS011;6364;53.590;9.956;2022-09-29T06:49:15;37.58;;;23.23;;
12597;SDS011;6364;53.590;9.956;2022-09-29T06:51:41;36.97;;;24.30;;
12597;SDS011;6364;53.590;9.956;2022-09-29T06:54:08;37.65;;;23.05;;
12597;SDS011;6364;53.590;9.956;2022-09-29T06:56:33;35.35;;;23.20;;
12597;SDS011;6364;53.590;9.956;2022-09-29T06:58:59;39.10;;;23.70;;
12597;SDS011;6364;53.590;9.956;2022-09-29T07:01:24;34.33;;;23.35;;
12597;SDS011;6364;53.590;9.956;2022-09-29T07:03:50;39.05;;;23.13;;
12597;SDS011;6364;53.590;9.956;2022-09-29T07:06:15;36.70;;;22.48;;
12597;SDS011;6364;53.590;9.956;2022-09-29T07:08:41;37.83;;;23.98;;
12597;SDS011;6364;53.590;9.956;2022-09-29T07:11:06;35.30;;;22.15;;
12597;SDS011;6364;53.590;9.956;2022-09-29T07:13:33;37.47;;;23.15;;
12597;SDS011;6364;53.590;9.956;2022-09-29T07:16:08;34.22;;;22.17;;
12597;SDS011;6364;53.590;9.956;2022-09-29T07:18:35;36.50;;;21.02;;
12597;SDS011;6364;53.590;9.956;2022-09-29T07:21:02;31.42;;;20.17;;
12597;SDS011;6364;53.590;9.956;2022-09-29T07:23:31;30.70;;;20.75;;
12597;SDS011;6364;53.590;9.956;2022-09-29T07:25:57;36.80;;;21.80;;
12597;SDS011;6364;53.590;9.956;2022-09-29T07:28:22;29.58;;;20.67;;
12597;SDS011;6364;53.590;9.956;2022-09-29T07:33:26;30.30;;;20.30;;
12597;SDS011;6364;53.590;9.956;2022-09-29T07:35:52;33.40;;;20.10;;
12597;SDS011;6364;53.590;9.956;2022-09-29T07:38:18;37.50;;;21.77;;
12597;SDS011;6364;53.590;9.956;2022-09-29T07:40:43;30.98;;;20.42;;
12597;SDS011;6364;53.590;9.956;2022-09-29T07:43:08;33.47;;;21.60;;
12597;SDS011;6364;53.590;9.956;2022-09-29T07:45:34;33.83;;;23.02;;
12597;SDS011;6364;53.590;9.956;2022-09-29T07:47:59;33.03;;;21.70;;
12597;SDS011;6364;53.590;9.956;2022-09-29T07:50:25;35.28;;;22.77;;
12597;SDS011;6364;53.590;9.956;2022-09-29T07:52:50;32.97;;;22.00;;
12597;SDS011;6364;53.590;9.956;2022-09-29T07:55:15;39.08;;;23.35;;
12597;SDS011;6364;53.590;9.956;2022-09-29T07:57:41;35.85;;;23.67;;
12597;SDS011;6364;53.590;9.956;2022-09-29T08:00:06;35.72;;;23.42;;
12597;SDS011;6364;53.590;9.956;2022-09-29T08:02:32;33.53;;;23.17;;
12597;SDS011;6364;53.590;9.956;2022-09-29T08:04:57;35.75;;;22.70;;
12597;SDS011;6364;53.590;9.956;2022-09-29T08:07:23;35.28;;;22.08;;
12597;SDS011;6364;53.590;9.956;2022-09-29T08:09:48;33.28;;;22.52;;
12597;SDS011;6364;53.590;9.956;2022-09-29T08:12:13;34.25;;;23.08;;
12597;SDS011;6364;53.590;9.956;2022-09-29T08:14:39;33.60;;;22.58;;
12597;SDS011;6364;53.590;9.956;2022-09-29T08:17:04;33.72;;;22.13;;
12597;SDS011;6364;53.590;9.956;2022-09-29T08:19:29;35.50;;;22.83;;
12597;SDS011;6364;53.590;9.956;2022-09-29T08:21:55;34.55;;;22.15;;
12597;SDS011;6364;53.590;9.956;2022-09-29T08:24:20;29.83;;;20.83;;
12597;SDS011;6364;53.590;9.956;2022-09-29T08:26:46;30.55;;;21.08;;
12597;SDS011;6364;53.590;9.956;2022-09-29T08:29:12;26.88;;;19.45;;
12597;SDS011;6364;53.590;9.956;2022-09-29T08:31:38;33.10;;;20.60;;
12597;SDS011;6364;53.590;9.956;2022-09-29T08:34:03;29.85;;;19.73;;
12597;SDS011;6364;53.590;9.956;2022-09-29T08:36:29;31.23;;;20.60;;
12597;SDS011;6364;53.590;9.956;2022-09-29T08:38:56;26.58;;;19.40;;
12597;SDS011;6364;53.590;9.956;2022-09-29T08:46:53;25.58;;;18.75;;
12597;SDS011;6364;53.590;9.956;2022-09-29T08:51:51;23.88;;;18.23;;
12597;SDS011;6364;53.590;9.956;2022-09-29T08:57:19;22.95;;;17.60;;
12597;SDS011;6364;53.590;9.956;2022-09-29T08:59:54;23.08;;;17.67;;
12597;SDS011;6364;53.590;9.956;2022-09-29T09:05:17;25.85;;;18.70;;
12597;SDS011;6364;53.590;9.956;2022-09-29T09:13:04;24.17;;;17.85;;
12597;SDS011;6364;53.590;9.956;2022-09-29T09:18:32;23.27;;;17.40;;
12597;SDS011;6364;53.590;9.956;2022-09-29T09:23:47;29.63;;;18.33;;
12597;SDS011;6364;53.590;9.956;2022-09-29T09:26:20;22.90;;;17.27;;
12597;SDS011;6364;53.590;9.956;2022-09-29T09:28:54;22.13;;;16.83;;
12597;SDS011;6364;53.590;9.956;2022-09-29T09:31:25;22.38;;;16.77;;
12597;SDS011;6364;53.590;9.956;2022-09-29T09:41:55;25.73;;;18.00;;
12597;SDS011;6364;53.590;9.956;2022-09-29T09:44:27;21.98;;;17.50;;
12597;SDS011;6364;53.590;9.956;2022-09-29T09:46:58;20.98;;;15.32;;
12597;SDS011;6364;53.590;9.956;2022-09-29T09:52:13;20.67;;;16.00;;
12597;SDS011;6364;53.590;9.956;2022-09-29T09:54:47;22.45;;;17.10;;
12597;SDS011;6364;53.590;9.956;2022-09-29T09:57:21;27.60;;;18.70;;
12597;SDS011;6364;53.590;9.956;2022-09-29T10:00:12;26.33;;;17.70;;
12597;SDS011;6364;53.590;9.956;2022-09-29T10:02:49;24.35;;;16.65;;
12597;SDS011;6364;53.590;9.956;2022-09-29T10:05:16;18.85;;;15.55;;
12597;SDS011;6364;53.590;9.956;2022-09-29T10:07:43;19.67;;;14.80;;
12597;SDS011;6364;53.590;9.956;2022-09-29T10:10:16;18.20;;;14.70;;
12597;SDS011;6364;53.590;9.956;2022-09-29T10:12:45;16.92;;;13.60;;
12597;SDS011;6364;53.590;9.956;2022-09-29T10:15:14;19.63;;;14.35;;
12597;SDS011;6364;53.590;9.956;2022-09-29T10:17:44;19.08;;;13.73;;
12597;SDS011;6364;53.590;9.956;2022-09-29T10:20:11;17.42;;;13.77;;
12597;SDS011;6364;53.590;9.956;2022-09-29T10:22:36;25.25;;;13.60;;
12597;SDS011;6364;53.590;9.956;2022-09-29T10:25:15;19.08;;;14.27;;
12597;SDS011;6364;53.590;9.956;2022-09-29T10:27:43;18.33;;;13.75;;
12597;SDS011;6364;53.590;9.956;2022-09-29T10:30:15;19.45;;;14.32;;
12597;SDS011;6364;53.590;9.956;2022-09-29T10:32:42;20.90;;;14.50;;
12597;SDS011;6364;53.590;9.956;2022-09-29T10:35:19;18.25;;;13.98;;
12597;SDS011;6364;53.590;9.956;2022-09-29T10:37:51;16.83;;;13.35;;
12597;SDS011;6364;53.590;9.956;2022-09-29T10:40:24;15.73;;;12.18;;
12597;SDS011;6364;53.590;9.956;2022-09-29T10:42:49;15.98;;;12.63;;
12597;SDS011;6364;53.590;9.956;2022-09-29T10:45:16;17.80;;;12.35;;
12597;SDS011;6364;53.590;9.956;2022-09-29T10:50:22;17.52;;;12.95;;
12597;SDS011;6364;53.590;9.956;2022-09-29T10:52:59;17.35;;;11.80;;
12597;SDS011;6364;53.590;9.956;2022-09-29T10:57:56;17.02;;;12.32;;
12597;SDS011;6364;53.590;9.956;2022-09-29T11:00:33;16.38;;;11.98;;
12597;SDS011;6364;53.590;9.956;2022-09-29T11:03:34;15.90;;;12.20;;
12597;SDS011;6364;53.590;9.956;2022-09-29T11:06:02;15.50;;;11.95;;
12597;SDS011;6364;53.590;9.956;2022-09-29T11:08:29;19.10;;;11.88;;
12597;SDS011;6364;53.590;9.956;2022-09-29T11:16:05;17.80;;;12.23;;
12597;SDS011;6364;53.590;9.956;2022-09-29T11:18:38;18.02;;;12.63;;
12597;SDS011;6364;53.590;9.956;2022-09-29T11:21:13;18.33;;;12.90;;
12597;SDS011;6364;53.590;9.956;2022-09-29T11:48:16;18.75;;;12.18;;
12597;SDS011;6364;53.590;9.956;2022-09-29T12:02:50;19.95;;;11.23;;
12597;SDS011;6364;53.590;9.956;2022-09-29T12:13:27;19.50;;;12.43;;
12597;SDS011;6364;53.590;9.956;2022-09-29T12:15:58;17.63;;;11.82;;
12597;SDS011;6364;53.590;9.956;2022-09-29T12:21:04;16.75;;;11.10;;
12597;SDS011;6364;53.590;9.956;2022-09-29T12:23:31;17.77;;;10.75;;
12597;SDS011;6364;53.590;9.956;2022-09-29T12:26:03;13.80;;;9.90;;
12597;SDS011;6364;53.590;9.956;2022-09-29T12:28:44;12.15;;;9.70;;
12597;SDS011;6364;53.590;9.956;2022-09-29T12:31:36;11.90;;;8.35;;
12597;SDS011;6364;53.590;9.956;2022-09-29T12:37:13;12.30;;;7.55;;
12597;SDS011;6364;53.590;9.956;2022-09-29T12:39:40;8.35;;;7.40;;
12597;SDS011;6364;53.590;9.956;2022-09-29T12:45:07;7.65;;;6.80;;
12597;SDS011;6364;53.590;9.956;2022-09-29T12:47:43;7.50;;;6.00;;
12597;SDS011;6364;53.590;9.956;2022-09-29T12:50:15;8.10;;;6.15;;
12597;SDS011;6364;53.590;9.956;2022-09-29T12:52:45;8.65;;;6.50;;
12597;SDS011;6364;53.590;9.956;2022-09-29T12:55:40;10.60;;;7.57;;
12597;SDS011;6364;53.590;9.956;2022-09-29T12:58:21;10.27;;;8.85;;
12597;SDS011;6364;53.590;9.956;2022-09-29T13:00:57;12.20;;;7.90;;
12597;SDS011;6364;53.590;9.956;2022-09-29T13:03:32;9.55;;;7.95;;
12597;SDS011;6364;53.590;9.956;2022-09-29T13:06:23;10.68;;;8.90;;
12597;SDS011;6364;53.590;9.956;2022-09-29T13:09:00;11.82;;;9.63;;
12597;SDS011;6364;53.590;9.956;2022-09-29T13:14:02;14.43;;;10.45;;
12597;SDS011;6364;53.590;9.956;2022-09-29T13:16:44;11.30;;;10.10;;
12597;SDS011;6364;53.590;9.956;2022-09-29T13:25:09;15.05;;;9.85;;
12597;SDS011;6364;53.590;9.956;2022-09-29T13:27:45;11.40;;;10.25;;
12597;SDS011;6364;53.590;9.956;2022-09-29T13:30:18;12.65;;;10.57;;
12597;SDS011;6364;53.590;9.956;2022-09-29T13:32:45;14.20;;;10.60;;
12597;SDS011;6364;53.590;9.956;2022-09-29T13:35:14;14.98;;;11.25;;
12597;SDS011;6364;53.590;9.956;2022-09-29T13:37:43;13.63;;;11.63;;
12597;SDS011;6364;53.590;9.956;2022-09-29T13:40:18;16.00;;;10.90;;
12597;SDS011;6364;53.590;9.956;2022-09-29T13:42:54;12.48;;;10.98;;
12597;SDS011;6364;53.590;9.956;2022-09-29T13:47:49;16.88;;;13.13;;
12597;SDS011;6364;53.590;9.956;2022-09-29T13:58:26;18.77;;;12.23;;
12597;SDS011;6364;53.590;9.956;2022-09-29T14:00:54;16.17;;;13.48;;
12597;SDS011;6364;53.590;9.956;2022-09-29T14:03:36;15.48;;;12.13;;
12597;SDS011;6364;53.590;9.956;2022-09-29T14:06:14;16.58;;;13.57;;
12597;SDS011;6364;53.590;9.956;2022-09-29T14:11:33;20.65;;;15.80;;
12597;SDS011;6364;53.590;9.956;2022-09-29T14:14:02;22.73;;;17.80;;
12597;SDS011;6364;53.590;9.956;2022-09-29T14:22:04;23.65;;;17.50;;
12597;SDS011;6364;53.590;9.956;2022-09-29T14:32:38;21.73;;;16.80;;
12597;SDS011;6364;53.590;9.956;2022-09-29T14:38:54;26.40;;;18.75;;
12597;SDS011;6364;53.590;9.956;2022-09-29T14:43:48;21.73;;;17.65;;
12597;SDS011;6364;53.590;9.956;2022-09-29T14:57:22;22.95;;;18.00;;
12597;SDS011;6364;53.590;9.956;2022-09-29T15:02:28;23.08;;;17.02;;
12597;SDS011;6364;53.590;9.956;2022-09-29T15:04:56;25.10;;;17.40;;
12597;SDS011;6364;53.590;9.956;2022-09-29T15:07:22;20.17;;;15.88;;
12597;SDS011;6364;53.590;9.956;2022-09-29T15:09:50;23.73;;;17.50;;
12597;SDS011;6364;53.590;9.956;2022-09-29T15:12:21;21.38;;;17.35;;
12597;SDS011;6364;53.590;9.956;2022-09-29T15:14:50;23.80;;;16.45;;
12597;SDS011;6364;53.590;9.956;2022-09-29T15:22:56;22.20;;;16.35;;
12597;SDS011;6364;53.590;9.956;2022-09-29T15:25:33;23.08;;;16.10;;
12597;SDS011;6364;53.590;9.956;2022-09-29T15:28:00;22.40;;;16.27;;
12597;SDS011;6364;53.590;9.956;2022-09-29T15:30:28;22.98;;;16.55;;
12597;SDS011;6364;53.590;9.956;2022-09-29T15:33:02;23.55;;;17.38;;
12597;SDS011;6364;53.590;9.956;2022-09-29T15:35:32;22.70;;;17.38;;
12597;SDS011;6364;53.590;9.956;2022-09-29T15:40:35;23.65;;;18.20;;
12597;SDS011;6364;53.590;9.956;2022-09-29T15:43:01;27.75;;;19.55;;
12597;SDS011;6364;53.590;9.956;2022-09-29T15:45:27;28.30;;;19.70;;
12597;SDS011;6364;53.590;9.956;2022-09-29T15:47:57;29.00;;;19.58;;
12597;SDS011;6364;53.590;9.956;2022-09-29T15:50:26;26.58;;;19.13;;
12597;SDS011;6364;53.590;9.956;2022-09-29T15:52:55;27.17;;;19.58;;
12597;SDS011;6364;53.590;9.956;2022-09-29T15:55:21;25.55;;;19.00;;
12597;SDS011;6364;53.590;9.956;2022-09-29T15:57:48;28.00;;;19.85;;
12597;SDS011;6364;53.590;9.956;2022-09-29T16:02:44;25.10;;;18.92;;
12597;SDS011;6364;53.590;9.956;2022-09-29T16:05:14;24.83;;;18.38;;
12597;SDS011;6364;53.590;9.956;2022-09-29T16:07:50;27.92;;;18.98;;
12597;SDS011;6364;53.590;9.956;2022-09-29T16:10:27;22.38;;;16.13;;
12597;SDS011;6364;53.590;9.956;2022-09-29T16:12:55;23.83;;;17.05;;
12597;SDS011;6364;53.590;9.956;2022-09-29T16:15:28;24.73;;;16.48;;
12597;SDS011;6364;53.590;9.956;2022-09-29T16:17:55;20.50;;;16.45;;
12597;SDS011;6364;53.590;9.956;2022-09-29T16:20:25;23.85;;;16.65;;
12597;SDS011;6364;53.590;9.956;2022-09-29T16:22:55;20.30;;;15.77;;
12597;SDS011;6364;53.590;9.956;2022-09-29T16:25:23;26.15;;;17.00;;
12597;SDS011;6364;53.590;9.956;2022-09-29T16:27:56;23.65;;;18.23;;
12597;SDS011;6364;53.590;9.956;2022-09-29T16:30:26;26.30;;;17.83;;
12597;SDS011;6364;53.590;9.956;2022-09-29T16:33:12;22.85;;;17.15;;
12597;SDS011;6364;53.590;9.956;2022-09-29T16:35:41;21.55;;;16.83;;
12597;SDS011;6364;53.590;9.956;2022-09-29T16:38:18;20.55;;;15.88;;
12597;SDS011;6364;53.590;9.956;2022-09-29T16:40:45;21.27;;;16.85;;
12597;SDS011;6364;53.590;9.956;2022-09-29T16:43:21;21.70;;;17.90;;
12597;SDS011;6364;53.590;9.956;2022-09-29T16:45:50;23.88;;;16.60;;
12597;SDS011;6364;53.590;9.956;2022-09-29T16:48:16;21.10;;;16.10;;
12597;SDS011;6364;53.590;9.956;2022-09-29T16:50:46;21.42;;;16.77;;
12597;SDS011;6364;53.590;9.956;2022-09-29T16:53:46;23.45;;;16.92;;
12597;SDS011;6364;53.590;9.956;2022-09-29T16:59:09;21.13;;;16.73;;
12597;SDS011;6364;53.590;9.956;2022-09-29T17:01:40;22.50;;;15.63;;
12597;SDS011;6364;53.590;9.956;2022-09-29T17:04:07;22.05;;;16.92;;
12597;SDS011;6364;53.590;9.956;2022-09-29T17:06:33;23.83;;;17.13;;
12597;SDS011;6364;53.590;9.956;2022-09-29T17:08:58;21.48;;;17.80;;
12597;SDS011;6364;53.590;9.956;2022-09-29T17:11:24;26.10;;;19.38;;
12597;SDS011;6364;53.590;9.956;2022-09-29T17:13:51;22.60;;;17.10;;
12597;SDS011;6364;53.590;9.956;2022-09-29T17:16:17;24.00;;;18.65;;
12597;SDS011;6364;53.590;9.956;2022-09-29T17:18:52;26.17;;;19.08;;
12597;SDS011;6364;53.590;9.956;2022-09-29T17:21:18;24.83;;;18.67;;
12597;SDS011;6364;53.590;9.956;2022-09-29T17:23:44;29.25;;;20.58;;
12597;SDS011;6364;53.590;9.956;2022-09-29T17:26:52;25.48;;;20.30;;
12597;SDS011;6364;53.590;9.956;2022-09-29T17:31:50;26.58;;;19.40;;
12597;SDS011;6364;53.590;9.956;2022-09-29T17:34:15;27.95;;;20.30;;
12597;SDS011;6364;53.590;9.956;2022-09-29T17:36:41;27.17;;;19.63;;
12597;SDS011;6364;53.590;9.956;2022-09-29T17:39:07;30.02;;;20.73;;
12597;SDS011;6364;53.590;9.956;2022-09-29T17:41:33;31.55;;;20.95;;
12597;SDS011;6364;53.590;9.956;2022-09-29T17:43:58;31.55;;;20.23;;
12597;SDS011;6364;53.590;9.956;2022-09-29T17:46:24;30.45;;;19.27;;
12597;SDS011;6364;53.590;9.956;2022-09-29T17:48:49;30.00;;;21.65;;
12597;SDS011;6364;53.590;9.956;2022-09-29T17:51:15;35.05;;;21.33;;
12597;SDS011;6364;53.590;9.956;2022-09-29T17:53:44;36.78;;;22.65;;
12597;SDS011;6364;53.590;9.956;2022-09-29T17:56:16;29.45;;;20.45;;
12597;SDS011;6364;53.590;9.956;2022-09-29T17:58:46;34.15;;;21.92;;
12597;SDS011;6364;53.590;9.956;2022-09-29T18:01:12;32.22;;;20.88;;
12597;SDS011;6364;53.590;9.956;2022-09-29T18:03:39;36.83;;;22.98;;
12597;SDS011;6364;53.590;9.956;2022-09-29T18:06:06;33.15;;;22.02;;
12597;SDS011;6364;53.590;9.956;2022-09-29T18:08:31;34.85;;;21.90;;
12597;SDS011;6364;53.590;9.956;2022-09-29T18:10:58;36.83;;;22.75;;
12597;SDS011;6364;53.590;9.956;2022-09-29T18:13:25;30.33;;;21.88;;
12597;SDS011;6364;53.590;9.956;2022-09-29T18:15:51;33.85;;;21.10;;
12597;SDS011;6364;53.590;9.956;2022-09-29T18:18:18;31.98;;;20.05;;
12597;SDS011;6364;53.590;9.956;2022-09-29T18:20:44;32.35;;;21.10;;
12597;SDS011;6364;53.590;9.956;2022-09-29T18:23:11;31.30;;;20.73;;